aviador You're here:

KOKC Decoded Metar

OKLAHOMA CITY in OK, USA
Report Time2018-01-22 11:52:00
UTC Time2018-01-22 12:10:51
Flight Rules vfr VFR
Wind260° at 18 kt
W.Decomp.*RWY 31: 10.3 kt HW 14.7 kt LCW
RWY 18: 4.7 kt HW 17.4 kt RCW
RWY 17: 1.6 kt HW 17.9 kt RCW
W.Rank260° ranks 35
Current wind is above 260° avg. (8.0)
Visibility9999 m
Phenomena:N/A
Clouds:Few 250 Hf
Expected CloudBase > 2,400 ft AGL from Temp-Dew spread
CeilingNone
Temp02°C (ISA -10)
Dew Point-4°C (65% RH)
AAT-7.0°C
QNH1009 hPa
Density Alt217 ft
Elevation1,280 ft
Report Wrong Elevation
Raw Report
KOKC 221152Z 26018KT 10SM FEW250 02/M04 A2979 RMK AO2 PK WND
26026/1116 SLP086 T00221044 10067 20022 51007=

Extra information for KOKC:More info

Metar Taf Metar & Taf Last 4 Metars F.Rules Stats Wind Profile Meteogram Temp Stats Airport Information Weather charts Add Link Nearby VenuesMetar ALERT Operation Metar Decoded Social comments

AIRNAV info for KOKC